Victoria, Virginia
Current Conditions -  °F | °C
As of 7:35 AM on Tuesday 27 Jan 2015 (Local Time) from KW31 Reporting Station
Overcast Overcast  
Wind Chill: 31°   Ceiling: 6000
Heat Index: 31°   Visibility: 10mi
Dew Point: 28°   Wind: 3mph
Humidity: 88%   Direction: 350°N
Pressure: 29.78"   Gusts: NA
Location:  36.99°N, 78.23°W
Report Text: KW31 271235Z AUTO 35003KT 10SM SCT009 SCT015 OVC060 M01/M02 A2978 RMK AO1 T10071025
Loading
Personal Weather Stations






























Interactive Weather Map New forecast layout! Learn more

10-Day Weather Forecast

Advertisements
Track Severe Weather on mobile